Chorrocho, Brazil
Current Conditions -  °F | °C
As of 6:00 AM on Friday 24 Oct 2014 (Local Time) from SBPL Reporting Station
Broken Clouds Broken Clouds  
Wind Chill: 77°   Ceiling: 3000
Heat Index: 79°   Visibility: 6mi
Dew Point: 64°   Wind: 7mph
Humidity: 65%   Direction: 140°SE
Pressure: 29.97"   Gusts: NA
Location:  8.98°S, 39.1°W
Report Text: SBPL 240900Z 14006KT 9999 BKN030 25/18 Q1015
Loading
Personal Weather Stations






























Interactive Weather Map
Tropical Storm Tracking
New forecast layout! Learn more

10-Day Weather Forecast

Advertisements
Track Severe Weather on mobile